sensor_id;sensor_type;location;lat;lon;timestamp;P1;durP1;ratioP1;P2;durP2;ratioP2
29380;SDS011;16364;52.490;13.326;2023-12-20T00:00:55;9.23;;;6.67;;
29380;SDS011;16364;52.490;13.326;2023-12-20T00:03:20;9.20;;;7.77;;
29380;SDS011;16364;52.490;13.326;2023-12-20T00:05:45;9.63;;;6.40;;
29380;SDS011;16364;52.490;13.326;2023-12-20T00:08:11;7.57;;;6.27;;
29380;SDS011;16364;52.490;13.326;2023-12-20T00:10:36;10.17;;;6.50;;
29380;SDS011;16364;52.490;13.326;2023-12-20T00:13:01;8.40;;;6.60;;
29380;SDS011;16364;52.490;13.326;2023-12-20T00:15:26;8.30;;;7.50;;
29380;SDS011;16364;52.490;13.326;2023-12-20T00:17:52;7.77;;;6.20;;
29380;SDS011;16364;52.490;13.326;2023-12-20T00:20:17;8.00;;;7.20;;
29380;SDS011;16364;52.490;13.326;2023-12-20T00:22:42;8.30;;;6.40;;
29380;SDS011;16364;52.490;13.326;2023-12-20T00:25:07;10.77;;;6.90;;
29380;SDS011;16364;52.490;13.326;2023-12-20T00:27:33;9.00;;;6.20;;
29380;SDS011;16364;52.490;13.326;2023-12-20T00:29:58;9.03;;;6.90;;
29380;SDS011;16364;52.490;13.326;2023-12-20T00:32:23;9.20;;;7.53;;
29380;SDS011;16364;52.490;13.326;2023-12-20T00:34:48;6.87;;;5.60;;
29380;SDS011;16364;52.490;13.326;2023-12-20T00:37:13;10.20;;;7.25;;
29380;SDS011;16364;52.490;13.326;2023-12-20T00:39:39;7.30;;;6.03;;
29380;SDS011;16364;52.490;13.326;2023-12-20T00:42:04;8.73;;;6.23;;
29380;SDS011;16364;52.490;13.326;2023-12-20T00:44:29;9.80;;;7.30;;
29380;SDS011;16364;52.490;13.326;2023-12-20T00:46:55;7.33;;;6.40;;
29380;SDS011;16364;52.490;13.326;2023-12-20T00:49:20;10.17;;;6.50;;
29380;SDS011;16364;52.490;13.326;2023-12-20T00:51:45;10.40;;;6.83;;
29380;SDS011;16364;52.490;13.326;2023-12-20T00:54:12;10.80;;;6.87;;
29380;SDS011;16364;52.490;13.326;2023-12-20T00:56:37;8.90;;;7.00;;
29380;SDS011;16364;52.490;13.326;2023-12-20T00:59:02;10.07;;;7.80;;
29380;SDS011;16364;52.490;13.326;2023-12-20T01:01:27;13.00;;;7.47;;
29380;SDS011;16364;52.490;13.326;2023-12-20T01:03:53;9.70;;;6.07;;
29380;SDS011;16364;52.490;13.326;2023-12-20T01:06:18;10.10;;;6.70;;
29380;SDS011;16364;52.490;13.326;2023-12-20T01:08:43;9.93;;;7.20;;
29380;SDS011;16364;52.490;13.326;2023-12-20T01:11:09;9.07;;;6.93;;
29380;SDS011;16364;52.490;13.326;2023-12-20T01:13:34;10.30;;;6.60;;
29380;SDS011;16364;52.490;13.326;2023-12-20T01:16:00;10.63;;;7.57;;
29380;SDS011;16364;52.490;13.326;2023-12-20T01:18:25;10.30;;;7.07;;
29380;SDS011;16364;52.490;13.326;2023-12-20T01:20:50;8.70;;;5.93;;
29380;SDS011;16364;52.490;13.326;2023-12-20T01:23:15;9.17;;;6.90;;
29380;SDS011;16364;52.490;13.326;2023-12-20T01:25:41;9.57;;;7.00;;
29380;SDS011;16364;52.490;13.326;2023-12-20T01:28:06;8.07;;;6.03;;
29380;SDS011;16364;52.490;13.326;2023-12-20T01:30:31;9.17;;;6.60;;
29380;SDS011;16364;52.490;13.326;2023-12-20T01:32:56;9.23;;;7.27;;
29380;SDS011;16364;52.490;13.326;2023-12-20T01:35:22;9.63;;;5.97;;
29380;SDS011;16364;52.490;13.326;2023-12-20T01:37:47;8.20;;;5.83;;
29380;SDS011;16364;52.490;13.326;2023-12-20T01:40:12;8.30;;;5.83;;
29380;SDS011;16364;52.490;13.326;2023-12-20T01:42:37;8.23;;;6.33;;
29380;SDS011;16364;52.490;13.326;2023-12-20T01:45:03;8.53;;;6.27;;
29380;SDS011;16364;52.490;13.326;2023-12-20T01:47:28;7.30;;;6.03;;
29380;SDS011;16364;52.490;13.326;2023-12-20T01:49:54;6.70;;;5.60;;
29380;SDS011;16364;52.490;13.326;2023-12-20T01:52:21;6.90;;;4.63;;
29380;SDS011;16364;52.490;13.326;2023-12-20T01:54:47;7.93;;;5.23;;
29380;SDS011;16364;52.490;13.326;2023-12-20T01:57:13;7.33;;;5.50;;
29380;SDS011;16364;52.490;13.326;2023-12-20T01:59:39;6.50;;;5.10;;
29380;SDS011;16364;52.490;13.326;2023-12-20T02:02:04;7.60;;;5.80;;
29380;SDS011;16364;52.490;13.326;2023-12-20T02:04:30;6.17;;;5.33;;
29380;SDS011;16364;52.490;13.326;2023-12-20T02:06:55;5.93;;;5.33;;
29380;SDS011;16364;52.490;13.326;2023-12-20T02:09:21;7.77;;;5.90;;
29380;SDS011;16364;52.490;13.326;2023-12-20T02:11:47;8.10;;;5.20;;
29380;SDS011;16364;52.490;13.326;2023-12-20T02:14:12;7.73;;;4.90;;
29380;SDS011;16364;52.490;13.326;2023-12-20T02:16:37;7.10;;;5.63;;
29380;SDS011;16364;52.490;13.326;2023-12-20T02:19:03;7.83;;;5.90;;
29380;SDS011;16364;52.490;13.326;2023-12-20T02:21:33;8.97;;;6.50;;
29380;SDS011;16364;52.490;13.326;2023-12-20T02:24:00;7.87;;;5.27;;
29380;SDS011;16364;52.490;13.326;2023-12-20T02:26:25;8.27;;;6.17;;
29380;SDS011;16364;52.490;13.326;2023-12-20T02:28:50;8.00;;;5.90;;
29380;SDS011;16364;52.490;13.326;2023-12-20T02:31:15;7.53;;;6.13;;
29380;SDS011;16364;52.490;13.326;2023-12-20T02:33:40;9.00;;;6.90;;
29380;SDS011;16364;52.490;13.326;2023-12-20T02:36:07;9.17;;;6.70;;
29380;SDS011;16364;52.490;13.326;2023-12-20T02:38:32;8.43;;;6.93;;
29380;SDS011;16364;52.490;13.326;2023-12-20T02:40:58;12.07;;;8.00;;
29380;SDS011;16364;52.490;13.326;2023-12-20T02:43:24;13.43;;;8.80;;
29380;SDS011;16364;52.490;13.326;2023-12-20T02:45:49;12.90;;;7.20;;
29380;SDS011;16364;52.490;13.326;2023-12-20T02:48:14;10.20;;;8.07;;
29380;SDS011;16364;52.490;13.326;2023-12-20T02:50:39;17.63;;;8.00;;
29380;SDS011;16364;52.490;13.326;2023-12-20T02:53:05;15.03;;;9.67;;
29380;SDS011;16364;52.490;13.326;2023-12-20T02:55:30;10.83;;;7.23;;
29380;SDS011;16364;52.490;13.326;2023-12-20T02:57:55;12.80;;;8.70;;
29380;SDS011;16364;52.490;13.326;2023-12-20T03:00:20;17.90;;;8.97;;
29380;SDS011;16364;52.490;13.326;2023-12-20T03:02:46;16.00;;;8.40;;
29380;SDS011;16364;52.490;13.326;2023-12-20T03:05:11;17.00;;;7.83;;
29380;SDS011;16364;52.490;13.326;2023-12-20T03:07:36;16.33;;;9.67;;
29380;SDS011;16364;52.490;13.326;2023-12-20T03:10:02;13.77;;;6.80;;
29380;SDS011;16364;52.490;13.326;2023-12-20T03:12:28;13.97;;;8.00;;
29380;SDS011;16364;52.490;13.326;2023-12-20T03:14:53;11.23;;;6.60;;
29380;SDS011;16364;52.490;13.326;2023-12-20T03:17:18;9.80;;;6.13;;
29380;SDS011;16364;52.490;13.326;2023-12-20T03:19:44;11.83;;;6.67;;
29380;SDS011;16364;52.490;13.326;2023-12-20T03:22:09;11.27;;;6.70;;
29380;SDS011;16364;52.490;13.326;2023-12-20T03:24:35;10.00;;;6.77;;
29380;SDS011;16364;52.490;13.326;2023-12-20T03:27:00;12.07;;;6.70;;
29380;SDS011;16364;52.490;13.326;2023-12-20T03:29:25;8.73;;;6.47;;
29380;SDS011;16364;52.490;13.326;2023-12-20T03:31:50;7.07;;;5.10;;
29380;SDS011;16364;52.490;13.326;2023-12-20T03:34:16;8.90;;;4.80;;
29380;SDS011;16364;52.490;13.326;2023-12-20T03:36:41;14.57;;;5.20;;
29380;SDS011;16364;52.490;13.326;2023-12-20T03:39:06;10.40;;;5.03;;
29380;SDS011;16364;52.490;13.326;2023-12-20T03:41:32;10.30;;;5.73;;
29380;SDS011;16364;52.490;13.326;2023-12-20T03:43:57;9.53;;;4.83;;
29380;SDS011;16364;52.490;13.326;2023-12-20T03:46:22;10.90;;;4.43;;
29380;SDS011;16364;52.490;13.326;2023-12-20T03:48:47;7.33;;;4.20;;
29380;SDS011;16364;52.490;13.326;2023-12-20T03:51:13;8.90;;;3.07;;
29380;SDS011;16364;52.490;13.326;2023-12-20T03:53:38;7.90;;;3.43;;
29380;SDS011;16364;52.490;13.326;2023-12-20T03:56:05;7.93;;;3.40;;
29380;SDS011;16364;52.490;13.326;2023-12-20T03:58:30;7.60;;;3.70;;
29380;SDS011;16364;52.490;13.326;2023-12-20T04:00:56;5.20;;;3.43;;
29380;SDS011;16364;52.490;13.326;2023-12-20T04:03:21;7.10;;;2.90;;
29380;SDS011;16364;52.490;13.326;2023-12-20T04:05:46;13.40;;;3.07;;
29380;SDS011;16364;52.490;13.326;2023-12-20T04:08:12;18.53;;;4.53;;
29380;SDS011;16364;52.490;13.326;2023-12-20T04:10:37;9.90;;;2.77;;
29380;SDS011;16364;52.490;13.326;2023-12-20T04:13:02;6.43;;;2.83;;
29380;SDS011;16364;52.490;13.326;2023-12-20T04:15:28;5.63;;;2.23;;
29380;SDS011;16364;52.490;13.326;2023-12-20T04:17:53;6.30;;;2.40;;
29380;SDS011;16364;52.490;13.326;2023-12-20T04:20:18;6.20;;;2.30;;
29380;SDS011;16364;52.490;13.326;2023-12-20T04:22:43;5.17;;;2.30;;
29380;SDS011;16364;52.490;13.326;2023-12-20T04:25:09;2.90;;;2.40;;
29380;SDS011;16364;52.490;13.326;2023-12-20T04:27:34;5.30;;;2.23;;
29380;SDS011;16364;52.490;13.326;2023-12-20T04:30:00;9.67;;;2.50;;
29380;SDS011;16364;52.490;13.326;2023-12-20T04:32:25;10.17;;;2.20;;
29380;SDS011;16364;52.490;13.326;2023-12-20T04:34:50;11.13;;;3.00;;
29380;SDS011;16364;52.490;13.326;2023-12-20T04:37:15;3.43;;;2.00;;
29380;SDS011;16364;52.490;13.326;2023-12-20T04:39:40;4.67;;;3.60;;
29380;SDS011;16364;52.490;13.326;2023-12-20T04:42:06;7.33;;;2.00;;
29380;SDS011;16364;52.490;13.326;2023-12-20T04:44:32;5.60;;;3.07;;
29380;SDS011;16364;52.490;13.326;2023-12-20T04:46:57;5.80;;;2.70;;
29380;SDS011;16364;52.490;13.326;2023-12-20T04:49:22;6.60;;;2.50;;
29380;SDS011;16364;52.490;13.326;2023-12-20T04:51:47;11.43;;;2.30;;
29380;SDS011;16364;52.490;13.326;2023-12-20T04:54:13;7.10;;;3.10;;
29380;SDS011;16364;52.490;13.326;2023-12-20T04:56:38;6.37;;;2.17;;
29380;SDS011;16364;52.490;13.326;2023-12-20T04:59:04;15.57;;;2.33;;
29380;SDS011;16364;52.490;13.326;2023-12-20T05:01:29;8.10;;;3.00;;
29380;SDS011;16364;52.490;13.326;2023-12-20T05:03:54;8.97;;;2.60;;
29380;SDS011;16364;52.490;13.326;2023-12-20T05:06:20;10.13;;;2.90;;
29380;SDS011;16364;52.490;13.326;2023-12-20T05:08:45;2.97;;;2.07;;
29380;SDS011;16364;52.490;13.326;2023-12-20T05:11:10;6.30;;;3.10;;
29380;SDS011;16364;52.490;13.326;2023-12-20T05:13:38;8.60;;;2.13;;
29380;SDS011;16364;52.490;13.326;2023-12-20T05:16:03;7.07;;;1.70;;
29380;SDS011;16364;52.490;13.326;2023-12-20T05:18:28;5.50;;;1.70;;
29380;SDS011;16364;52.490;13.326;2023-12-20T05:20:54;7.23;;;1.70;;
29380;SDS011;16364;52.490;13.326;2023-12-20T05:23:19;10.30;;;1.63;;
29380;SDS011;16364;52.490;13.326;2023-12-20T05:25:45;5.50;;;2.00;;
29380;SDS011;16364;52.490;13.326;2023-12-20T05:28:10;6.57;;;2.13;;
29380;SDS011;16364;52.490;13.326;2023-12-20T05:30:35;8.23;;;2.07;;
29380;SDS011;16364;52.490;13.326;2023-12-20T05:33:01;9.70;;;2.73;;
29380;SDS011;16364;52.490;13.326;2023-12-20T05:35:26;6.60;;;2.10;;
29380;SDS011;16364;52.490;13.326;2023-12-20T05:37:51;13.10;;;2.40;;
29380;SDS011;16364;52.490;13.326;2023-12-20T05:40:16;4.13;;;2.90;;
29380;SDS011;16364;52.490;13.326;2023-12-20T05:42:42;4.50;;;1.90;;
29380;SDS011;16364;52.490;13.326;2023-12-20T05:45:08;10.03;;;2.97;;
29380;SDS011;16364;52.490;13.326;2023-12-20T05:47:34;9.63;;;2.00;;
29380;SDS011;16364;52.490;13.326;2023-12-20T05:49:59;5.63;;;1.67;;
29380;SDS011;16364;52.490;13.326;2023-12-20T05:52:24;12.07;;;2.40;;
29380;SDS011;16364;52.490;13.326;2023-12-20T05:54:49;7.63;;;2.33;;
29380;SDS011;16364;52.490;13.326;2023-12-20T05:57:15;7.60;;;2.00;;
29380;SDS011;16364;52.490;13.326;2023-12-20T05:59:40;8.10;;;1.93;;
29380;SDS011;16364;52.490;13.326;2023-12-20T06:02:05;15.83;;;3.10;;
29380;SDS011;16364;52.490;13.326;2023-12-20T06:04:31;7.73;;;2.03;;
29380;SDS011;16364;52.490;13.326;2023-12-20T06:06:56;13.47;;;2.93;;
29380;SDS011;16364;52.490;13.326;2023-12-20T06:09:21;2.70;;;2.03;;
29380;SDS011;16364;52.490;13.326;2023-12-20T06:11:46;8.73;;;2.30;;
29380;SDS011;16364;52.490;13.326;2023-12-20T06:14:12;8.93;;;2.20;;
29380;SDS011;16364;52.490;13.326;2023-12-20T06:16:37;4.23;;;1.73;;
29380;SDS011;16364;52.490;13.326;2023-12-20T06:19:02;6.40;;;1.67;;
29380;SDS011;16364;52.490;13.326;2023-12-20T06:21:27;10.77;;;1.97;;
29380;SDS011;16364;52.490;13.326;2023-12-20T06:23:53;3.10;;;1.70;;
29380;SDS011;16364;52.490;13.326;2023-12-20T06:26:18;4.13;;;1.60;;
29380;SDS011;16364;52.490;13.326;2023-12-20T06:28:43;4.90;;;1.77;;
29380;SDS011;16364;52.490;13.326;2023-12-20T06:31:09;6.10;;;2.33;;
29380;SDS011;16364;52.490;13.326;2023-12-20T06:33:34;3.37;;;1.80;;
29380;SDS011;16364;52.490;13.326;2023-12-20T06:35:59;15.17;;;1.93;;
29380;SDS011;16364;52.490;13.326;2023-12-20T06:38:25;11.37;;;2.17;;
29380;SDS011;16364;52.490;13.326;2023-12-20T06:40:50;10.30;;;2.60;;
29380;SDS011;16364;52.490;13.326;2023-12-20T06:43:15;4.40;;;1.80;;
29380;SDS011;16364;52.490;13.326;2023-12-20T06:45:41;4.43;;;1.90;;
29380;SDS011;16364;52.490;13.326;2023-12-20T06:48:06;9.23;;;2.00;;
29380;SDS011;16364;52.490;13.326;2023-12-20T06:50:32;3.30;;;2.17;;
29380;SDS011;16364;52.490;13.326;2023-12-20T06:52:57;5.93;;;2.40;;
29380;SDS011;16364;52.490;13.326;2023-12-20T06:55:22;5.63;;;2.50;;
29380;SDS011;16364;52.490;13.326;2023-12-20T06:57:48;7.77;;;2.20;;
29380;SDS011;16364;52.490;13.326;2023-12-20T07:00:13;11.90;;;3.27;;
29380;SDS011;16364;52.490;13.326;2023-12-20T07:02:39;6.13;;;2.77;;
29380;SDS011;16364;52.490;13.326;2023-12-20T07:05:04;9.47;;;2.47;;
29380;SDS011;16364;52.490;13.326;2023-12-20T07:07:29;6.10;;;2.20;;
29380;SDS011;16364;52.490;13.326;2023-12-20T07:09:55;8.23;;;2.93;;
29380;SDS011;16364;52.490;13.326;2023-12-20T07:12:20;9.53;;;2.97;;
29380;SDS011;16364;52.490;13.326;2023-12-20T07:14:45;5.03;;;2.50;;
29380;SDS011;16364;52.490;13.326;2023-12-20T07:17:11;8.60;;;2.40;;
29380;SDS011;16364;52.490;13.326;2023-12-20T07:19:38;10.97;;;2.60;;
29380;SDS011;16364;52.490;13.326;2023-12-20T07:22:04;9.20;;;2.83;;
29380;SDS011;16364;52.490;13.326;2023-12-20T07:24:29;6.20;;;2.33;;
29380;SDS011;16364;52.490;13.326;2023-12-20T07:26:55;3.40;;;2.40;;
29380;SDS011;16364;52.490;13.326;2023-12-20T07:29:20;11.47;;;2.90;;
29380;SDS011;16364;52.490;13.326;2023-12-20T07:31:45;7.87;;;2.40;;
29380;SDS011;16364;52.490;13.326;2023-12-20T07:34:11;17.30;;;2.43;;
29380;SDS011;16364;52.490;13.326;2023-12-20T07:36:36;11.30;;;2.80;;
29380;SDS011;16364;52.490;13.326;2023-12-20T07:39:01;11.47;;;1.80;;
29380;SDS011;16364;52.490;13.326;2023-12-20T07:41:26;5.30;;;1.80;;
29380;SDS011;16364;52.490;13.326;2023-12-20T07:43:52;7.43;;;1.80;;
29380;SDS011;16364;52.490;13.326;2023-12-20T07:46:18;5.90;;;1.70;;
29380;SDS011;16364;52.490;13.326;2023-12-20T07:48:47;6.90;;;1.90;;
29380;SDS011;16364;52.490;13.326;2023-12-20T07:51:12;5.20;;;1.70;;
29380;SDS011;16364;52.490;13.326;2023-12-20T07:53:38;7.17;;;1.80;;
29380;SDS011;16364;52.490;13.326;2023-12-20T07:56:12;3.50;;;1.70;;
29380;SDS011;16364;52.490;13.326;2023-12-20T07:58:38;3.67;;;1.90;;
29380;SDS011;16364;52.490;13.326;2023-12-20T08:01:03;7.37;;;2.23;;
29380;SDS011;16364;52.490;13.326;2023-12-20T08:03:28;7.37;;;2.27;;
29380;SDS011;16364;52.490;13.326;2023-12-20T08:05:53;4.33;;;2.20;;
29380;SDS011;16364;52.490;13.326;2023-12-20T08:08:19;12.33;;;2.03;;
29380;SDS011;16364;52.490;13.326;2023-12-20T08:10:44;8.37;;;2.53;;
29380;SDS011;16364;52.490;13.326;2023-12-20T08:13:09;6.33;;;1.77;;
29380;SDS011;16364;52.490;13.326;2023-12-20T08:15:34;10.07;;;2.00;;
29380;SDS011;16364;52.490;13.326;2023-12-20T08:18:00;11.13;;;3.30;;
29380;SDS011;16364;52.490;13.326;2023-12-20T08:20:25;3.10;;;2.00;;
29380;SDS011;16364;52.490;13.326;2023-12-20T08:22:50;5.23;;;1.90;;
29380;SDS011;16364;52.490;13.326;2023-12-20T08:25:16;7.60;;;2.00;;
29380;SDS011;16364;52.490;13.326;2023-12-20T08:27:41;3.73;;;1.90;;
29380;SDS011;16364;52.490;13.326;2023-12-20T08:30:10;2.20;;;1.60;;
29380;SDS011;16364;52.490;13.326;2023-12-20T08:32:35;8.07;;;1.90;;
29380;SDS011;16364;52.490;13.326;2023-12-20T08:35:00;6.67;;;1.70;;
29380;SDS011;16364;52.490;13.326;2023-12-20T08:37:26;6.43;;;2.40;;
29380;SDS011;16364;52.490;13.326;2023-12-20T08:39:51;5.73;;;1.70;;
29380;SDS011;16364;52.490;13.326;2023-12-20T08:42:16;7.50;;;2.03;;
29380;SDS011;16364;52.490;13.326;2023-12-20T08:44:42;2.80;;;1.60;;
29380;SDS011;16364;52.490;13.326;2023-12-20T08:47:07;8.43;;;2.67;;
29380;SDS011;16364;52.490;13.326;2023-12-20T08:49:32;8.87;;;2.33;;
29380;SDS011;16364;52.490;13.326;2023-12-20T08:51:57;4.33;;;1.47;;
29380;SDS011;16364;52.490;13.326;2023-12-20T08:54:23;2.90;;;1.70;;
29380;SDS011;16364;52.490;13.326;2023-12-20T08:56:48;7.83;;;1.57;;
29380;SDS011;16364;52.490;13.326;2023-12-20T08:59:13;5.40;;;1.83;;
29380;SDS011;16364;52.490;13.326;2023-12-20T09:01:39;8.53;;;1.73;;
29380;SDS011;16364;52.490;13.326;2023-12-20T09:04:04;7.60;;;1.47;;
29380;SDS011;16364;52.490;13.326;2023-12-20T09:06:31;7.43;;;1.80;;
29380;SDS011;16364;52.490;13.326;2023-12-20T09:08:56;2.07;;;1.47;;
29380;SDS011;16364;52.490;13.326;2023-12-20T09:11:22;6.50;;;1.50;;
29380;SDS011;16364;52.490;13.326;2023-12-20T09:13:47;6.60;;;2.47;;
29380;SDS011;16364;52.490;13.326;2023-12-20T09:16:13;4.93;;;1.67;;
29380;SDS011;16364;52.490;13.326;2023-12-20T09:18:40;4.23;;;2.20;;
29380;SDS011;16364;52.490;13.326;2023-12-20T09:21:06;6.37;;;2.67;;
29380;SDS011;16364;52.490;13.326;2023-12-20T09:23:31;5.03;;;1.50;;
29380;SDS011;16364;52.490;13.326;2023-12-20T09:25:56;5.60;;;1.97;;
29380;SDS011;16364;52.490;13.326;2023-12-20T09:28:21;9.00;;;1.47;;
29380;SDS011;16364;52.490;13.326;2023-12-20T09:30:47;3.40;;;1.73;;
29380;SDS011;16364;52.490;13.326;2023-12-20T09:33:12;4.80;;;1.50;;
29380;SDS011;16364;52.490;13.326;2023-12-20T09:35:38;5.70;;;1.50;;
29380;SDS011;16364;52.490;13.326;2023-12-20T09:38:03;4.20;;;1.57;;
29380;SDS011;16364;52.490;13.326;2023-12-20T09:40:28;6.70;;;1.57;;
29380;SDS011;16364;52.490;13.326;2023-12-20T09:42:58;5.47;;;1.80;;
29380;SDS011;16364;52.490;13.326;2023-12-20T09:45:23;5.93;;;1.60;;
29380;SDS011;16364;52.490;13.326;2023-12-20T09:47:53;4.03;;;1.70;;
29380;SDS011;16364;52.490;13.326;2023-12-20T09:50:19;4.17;;;1.50;;
29380;SDS011;16364;52.490;13.326;2023-12-20T09:52:45;6.57;;;1.50;;
29380;SDS011;16364;52.490;13.326;2023-12-20T09:55:11;6.90;;;1.60;;
29380;SDS011;16364;52.490;13.326;2023-12-20T09:57:37;5.47;;;1.90;;
29380;SDS011;16364;52.490;13.326;2023-12-20T10:00:02;7.43;;;2.53;;
29380;SDS011;16364;52.490;13.326;2023-12-20T10:02:28;11.37;;;2.10;;
29380;SDS011;16364;52.490;13.326;2023-12-20T10:04:54;2.50;;;1.53;;
29380;SDS011;16364;52.490;13.326;2023-12-20T10:07:20;3.17;;;2.10;;
29380;SDS011;16364;52.490;13.326;2023-12-20T10:09:47;5.97;;;1.70;;
29380;SDS011;16364;52.490;13.326;2023-12-20T10:12:12;6.83;;;1.80;;
29380;SDS011;16364;52.490;13.326;2023-12-20T10:14:38;5.03;;;1.90;;
29380;SDS011;16364;52.490;13.326;2023-12-20T10:17:04;5.37;;;1.83;;
29380;SDS011;16364;52.490;13.326;2023-12-20T10:19:29;9.93;;;2.13;;
29380;SDS011;16364;52.490;13.326;2023-12-20T10:21:55;6.93;;;1.63;;
29380;SDS011;16364;52.490;13.326;2023-12-20T10:24:20;7.47;;;1.63;;
29380;SDS011;16364;52.490;13.326;2023-12-20T10:26:45;15.73;;;2.70;;
29380;SDS011;16364;52.490;13.326;2023-12-20T10:29:11;10.77;;;1.80;;
29380;SDS011;16364;52.490;13.326;2023-12-20T10:31:36;8.73;;;1.50;;
29380;SDS011;16364;52.490;13.326;2023-12-20T10:34:03;5.70;;;1.83;;
29380;SDS011;16364;52.490;13.326;2023-12-20T10:36:29;6.83;;;1.83;;
29380;SDS011;16364;52.490;13.326;2023-12-20T10:38:55;9.03;;;2.50;;
29380;SDS011;16364;52.490;13.326;2023-12-20T10:41:33;5.93;;;1.50;;
29380;SDS011;16364;52.490;13.326;2023-12-20T10:43:59;3.73;;;1.50;;
29380;SDS011;16364;52.490;13.326;2023-12-20T10:46:26;4.10;;;1.53;;
29380;SDS011;16364;52.490;13.326;2023-12-20T10:48:53;6.20;;;2.07;;
29380;SDS011;16364;52.490;13.326;2023-12-20T10:51:18;5.87;;;1.87;;
29380;SDS011;16364;52.490;13.326;2023-12-20T10:53:45;5.83;;;1.70;;
29380;SDS011;16364;52.490;13.326;2023-12-20T10:56:12;7.87;;;1.50;;
29380;SDS011;16364;52.490;13.326;2023-12-20T10:58:40;11.77;;;2.87;;
29380;SDS011;16364;52.490;13.326;2023-12-20T11:01:07;6.93;;;1.90;;
29380;SDS011;16364;52.490;13.326;2023-12-20T11:03:34;4.10;;;3.30;;
29380;SDS011;16364;52.490;13.326;2023-12-20T11:06:06;8.30;;;1.90;;
29380;SDS011;16364;52.490;13.326;2023-12-20T11:08:43;3.87;;;1.87;;
29380;SDS011;16364;52.490;13.326;2023-12-20T11:11:13;3.27;;;1.70;;
29380;SDS011;16364;52.490;13.326;2023-12-20T11:13:54;6.80;;;1.83;;
29380;SDS011;16364;52.490;13.326;2023-12-20T11:16:20;8.60;;;2.20;;
29380;SDS011;16364;52.490;13.326;2023-12-20T11:18:47;6.77;;;2.67;;
29380;SDS011;16364;52.490;13.326;2023-12-20T11:21:12;4.70;;;1.67;;
29380;SDS011;16364;52.490;13.326;2023-12-20T11:23:39;4.73;;;2.07;;
29380;SDS011;16364;52.490;13.326;2023-12-20T11:26:07;3.67;;;2.00;;
29380;SDS011;16364;52.490;13.326;2023-12-20T11:28:32;8.97;;;2.40;;
29380;SDS011;16364;52.490;13.326;2023-12-20T11:30:57;7.00;;;2.77;;
29380;SDS011;16364;52.490;13.326;2023-12-20T11:33:32;6.23;;;2.20;;
29380;SDS011;16364;52.490;13.326;2023-12-20T11:36:00;8.67;;;1.90;;
29380;SDS011;16364;52.490;13.326;2023-12-20T11:38:25;20.10;;;2.33;;
29380;SDS011;16364;52.490;13.326;2023-12-20T11:40:51;4.47;;;2.33;;
29380;SDS011;16364;52.490;13.326;2023-12-20T11:43:36;9.73;;;2.80;;
29380;SDS011;16364;52.490;13.326;2023-12-20T11:46:02;8.87;;;2.60;;
29380;SDS011;16364;52.490;13.326;2023-12-20T11:48:28;3.53;;;1.90;;
29380;SDS011;16364;52.490;13.326;2023-12-20T11:50:53;8.07;;;2.13;;
29380;SDS011;16364;52.490;13.326;2023-12-20T11:53:18;2.60;;;1.80;;
29380;SDS011;16364;52.490;13.326;2023-12-20T11:55:47;11.73;;;2.40;;
29380;SDS011;16364;52.490;13.326;2023-12-20T11:58:12;4.93;;;1.70;;
29380;SDS011;16364;52.490;13.326;2023-12-20T12:00:38;4.53;;;1.90;;
29380;SDS011;16364;52.490;13.326;2023-12-20T12:03:03;6.23;;;1.80;;
29380;SDS011;16364;52.490;13.326;2023-12-20T12:05:30;3.20;;;1.70;;
29380;SDS011;16364;52.490;13.326;2023-12-20T12:07:55;3.57;;;2.40;;
29380;SDS011;16364;52.490;13.326;2023-12-20T12:10:21;5.70;;;2.03;;
29380;SDS011;16364;52.490;13.326;2023-12-20T12:12:46;5.27;;;2.27;;
29380;SDS011;16364;52.490;13.326;2023-12-20T12:15:12;3.80;;;1.80;;
29380;SDS011;16364;52.490;13.326;2023-12-20T12:17:37;8.30;;;2.27;;
29380;SDS011;16364;52.490;13.326;2023-12-20T12:20:04;7.27;;;2.10;;
29380;SDS011;16364;52.490;13.326;2023-12-20T12:22:29;5.63;;;1.53;;
29380;SDS011;16364;52.490;13.326;2023-12-20T12:24:55;3.10;;;2.00;;
29380;SDS011;16364;52.490;13.326;2023-12-20T12:27:23;5.43;;;2.10;;
29380;SDS011;16364;52.490;13.326;2023-12-20T12:30:02;3.27;;;1.97;;
29380;SDS011;16364;52.490;13.326;2023-12-20T12:32:28;9.33;;;2.17;;
29380;SDS011;16364;52.490;13.326;2023-12-20T12:34:53;9.03;;;2.80;;
29380;SDS011;16364;52.490;13.326;2023-12-20T12:37:19;8.53;;;2.23;;
29380;SDS011;16364;52.490;13.326;2023-12-20T12:39:46;4.47;;;2.00;;
29380;SDS011;16364;52.490;13.326;2023-12-20T12:42:11;6.23;;;2.10;;
29380;SDS011;16364;52.490;13.326;2023-12-20T12:44:36;6.10;;;2.03;;
29380;SDS011;16364;52.490;13.326;2023-12-20T12:47:01;8.17;;;2.40;;
29380;SDS011;16364;52.490;13.326;2023-12-20T12:49:28;5.20;;;2.27;;
29380;SDS011;16364;52.490;13.326;2023-12-20T12:51:53;5.70;;;2.13;;
29380;SDS011;16364;52.490;13.326;2023-12-20T12:54:21;4.07;;;2.10;;
29380;SDS011;16364;52.490;13.326;2023-12-20T12:56:46;6.43;;;3.10;;
29380;SDS011;16364;52.490;13.326;2023-12-20T12:59:12;10.03;;;2.23;;
29380;SDS011;16364;52.490;13.326;2023-12-20T13:01:38;12.97;;;2.30;;
29380;SDS011;16364;52.490;13.326;2023-12-20T13:04:03;6.20;;;2.17;;
29380;SDS011;16364;52.490;13.326;2023-12-20T13:06:31;3.00;;;2.43;;
29380;SDS011;16364;52.490;13.326;2023-12-20T13:08:57;4.77;;;2.77;;
29380;SDS011;16364;52.490;13.326;2023-12-20T13:11:22;6.33;;;3.40;;
29380;SDS011;16364;52.490;13.326;2023-12-20T13:13:47;7.70;;;3.03;;
29380;SDS011;16364;52.490;13.326;2023-12-20T13:16:12;6.80;;;4.47;;
29380;SDS011;16364;52.490;13.326;2023-12-20T13:18:38;7.00;;;2.80;;
29380;SDS011;16364;52.490;13.326;2023-12-20T13:21:07;8.93;;;3.03;;
29380;SDS011;16364;52.490;13.326;2023-12-20T13:23:32;5.00;;;2.70;;
29380;SDS011;16364;52.490;13.326;2023-12-20T13:25:57;7.40;;;3.10;;
29380;SDS011;16364;52.490;13.326;2023-12-20T13:28:23;7.30;;;2.93;;
29380;SDS011;16364;52.490;13.326;2023-12-20T13:30:48;5.87;;;2.60;;
29380;SDS011;16364;52.490;13.326;2023-12-20T13:33:13;2.00;;;1.50;;
29380;SDS011;16364;52.490;13.326;2023-12-20T13:35:38;1.20;;;1.10;;
29380;SDS011;16364;52.490;13.326;2023-12-20T13:38:04;2.97;;;1.27;;
29380;SDS011;16364;52.490;13.326;2023-12-20T13:40:29;2.20;;;1.13;;
29380;SDS011;16364;52.490;13.326;2023-12-20T13:42:55;2.23;;;1.07;;
29380;SDS011;16364;52.490;13.326;2023-12-20T13:45:20;2.00;;;1.00;;
29380;SDS011;16364;52.490;13.326;2023-12-20T13:47:45;1.70;;;1.07;;
29380;SDS011;16364;52.490;13.326;2023-12-20T13:50:11;2.30;;;1.20;;
29380;SDS011;16364;52.490;13.326;2023-12-20T13:52:36;2.90;;;1.40;;
29380;SDS011;16364;52.490;13.326;2023-12-20T13:55:02;3.83;;;1.27;;
29380;SDS011;16364;52.490;13.326;2023-12-20T13:57:27;1.73;;;1.47;;
29380;SDS011;16364;52.490;13.326;2023-12-20T13:59:54;3.70;;;1.50;;
29380;SDS011;16364;52.490;13.326;2023-12-20T14:02:22;9.33;;;1.87;;
29380;SDS011;16364;52.490;13.326;2023-12-20T14:04:47;2.60;;;1.60;;
29380;SDS011;16364;52.490;13.326;2023-12-20T14:07:12;2.33;;;1.50;;
29380;SDS011;16364;52.490;13.326;2023-12-20T14:09:37;1.83;;;1.40;;
29380;SDS011;16364;52.490;13.326;2023-12-20T14:12:03;3.63;;;1.40;;
29380;SDS011;16364;52.490;13.326;2023-12-20T14:14:29;1.83;;;1.00;;
29380;SDS011;16364;52.490;13.326;2023-12-20T14:16:54;1.10;;;0.73;;
29380;SDS011;16364;52.490;13.326;2023-12-20T14:19:20;2.90;;;1.00;;
29380;SDS011;16364;52.490;13.326;2023-12-20T14:21:45;1.37;;;0.87;;